sensor_id;sensor_type;location;lat;lon;timestamp;P1;durP1;ratioP1;P2;durP2;ratioP2
5882;SDS011;2967;51.488;6.618;2024-02-26T00:00:04;8.30;;;3.57;;
5882;SDS011;2967;51.488;6.618;2024-02-26T00:05:11;9.37;;;3.03;;
5882;SDS011;2967;51.488;6.618;2024-02-26T00:10:14;7.13;;;3.43;;
5882;SDS011;2967;51.488;6.618;2024-02-26T00:15:17;7.20;;;3.17;;
5882;SDS011;2967;51.488;6.618;2024-02-26T00:20:21;7.20;;;3.60;;
5882;SDS011;2967;51.488;6.618;2024-02-26T00:25:24;5.60;;;2.60;;
5882;SDS011;2967;51.488;6.618;2024-02-26T00:30:27;17.33;;;3.10;;
5882;SDS011;2967;51.488;6.618;2024-02-26T00:35:31;12.30;;;3.33;;
5882;SDS011;2967;51.488;6.618;2024-02-26T00:40:33;8.70;;;3.90;;
5882;SDS011;2967;51.488;6.618;2024-02-26T00:45:36;11.67;;;5.23;;
5882;SDS011;2967;51.488;6.618;2024-02-26T00:50:41;8.20;;;3.47;;
5882;SDS011;2967;51.488;6.618;2024-02-26T00:55:44;4.87;;;3.00;;
5882;SDS011;2967;51.488;6.618;2024-02-26T01:00:47;6.40;;;3.60;;
5882;SDS011;2967;51.488;6.618;2024-02-26T01:05:51;7.53;;;2.80;;
5882;SDS011;2967;51.488;6.618;2024-02-26T01:10:58;3.83;;;2.43;;
5882;SDS011;2967;51.488;6.618;2024-02-26T01:16:02;4.07;;;2.60;;
5882;SDS011;2967;51.488;6.618;2024-02-26T01:21:07;3.43;;;2.70;;
5882;SDS011;2967;51.488;6.618;2024-02-26T01:26:10;4.70;;;3.03;;
5882;SDS011;2967;51.488;6.618;2024-02-26T01:31:13;4.43;;;3.10;;
5882;SDS011;2967;51.488;6.618;2024-02-26T01:36:17;6.80;;;3.33;;
5882;SDS011;2967;51.488;6.618;2024-02-26T01:41:20;6.60;;;3.30;;
5882;SDS011;2967;51.488;6.618;2024-02-26T01:46:23;5.70;;;3.83;;
5882;SDS011;2967;51.488;6.618;2024-02-26T01:51:27;6.43;;;3.10;;
5882;SDS011;2967;51.488;6.618;2024-02-26T01:56:30;4.43;;;3.00;;
5882;SDS011;2967;51.488;6.618;2024-02-26T02:01:34;9.90;;;4.00;;
5882;SDS011;2967;51.488;6.618;2024-02-26T02:06:40;8.37;;;3.90;;
5882;SDS011;2967;51.488;6.618;2024-02-26T02:11:45;16.53;;;3.43;;
5882;SDS011;2967;51.488;6.618;2024-02-26T02:16:50;4.40;;;2.83;;
5882;SDS011;2967;51.488;6.618;2024-02-26T02:21:54;5.37;;;3.00;;
5882;SDS011;2967;51.488;6.618;2024-02-26T02:26:57;7.43;;;3.03;;
5882;SDS011;2967;51.488;6.618;2024-02-26T02:32:00;6.87;;;2.83;;
5882;SDS011;2967;51.488;6.618;2024-02-26T02:37:05;5.00;;;2.60;;
5882;SDS011;2967;51.488;6.618;2024-02-26T02:42:08;3.77;;;2.40;;
5882;SDS011;2967;51.488;6.618;2024-02-26T02:47:12;3.03;;;2.50;;
5882;SDS011;2967;51.488;6.618;2024-02-26T02:52:16;5.90;;;2.93;;
5882;SDS011;2967;51.488;6.618;2024-02-26T02:57:19;3.60;;;2.53;;
5882;SDS011;2967;51.488;6.618;2024-02-26T03:02:22;2.57;;;2.27;;
5882;SDS011;2967;51.488;6.618;2024-02-26T03:07:27;3.70;;;2.60;;
5882;SDS011;2967;51.488;6.618;2024-02-26T03:12:30;3.70;;;2.07;;
5882;SDS011;2967;51.488;6.618;2024-02-26T03:17:33;4.33;;;2.60;;
5882;SDS011;2967;51.488;6.618;2024-02-26T03:22:38;3.10;;;2.20;;
5882;SDS011;2967;51.488;6.618;2024-02-26T03:27:40;5.23;;;2.43;;
5882;SDS011;2967;51.488;6.618;2024-02-26T03:32:43;3.93;;;2.07;;
5882;SDS011;2967;51.488;6.618;2024-02-26T03:37:48;3.63;;;2.10;;
5882;SDS011;2967;51.488;6.618;2024-02-26T03:42:54;2.23;;;2.03;;
5882;SDS011;2967;51.488;6.618;2024-02-26T03:47:58;3.60;;;2.30;;
5882;SDS011;2967;51.488;6.618;2024-02-26T03:53:03;3.87;;;2.37;;
5882;SDS011;2967;51.488;6.618;2024-02-26T03:58:06;3.90;;;2.43;;
5882;SDS011;2967;51.488;6.618;2024-02-26T04:03:09;4.60;;;2.23;;
5882;SDS011;2967;51.488;6.618;2024-02-26T04:08:13;6.50;;;2.50;;
5882;SDS011;2967;51.488;6.618;2024-02-26T04:13:17;2.27;;;2.07;;
5882;SDS011;2967;51.488;6.618;2024-02-26T04:18:20;2.80;;;2.10;;
5882;SDS011;2967;51.488;6.618;2024-02-26T04:23:24;3.57;;;2.23;;
5882;SDS011;2967;51.488;6.618;2024-02-26T04:28:27;3.63;;;2.67;;
5882;SDS011;2967;51.488;6.618;2024-02-26T04:33:33;2.80;;;2.20;;
5882;SDS011;2967;51.488;6.618;2024-02-26T04:38:38;3.40;;;2.10;;
5882;SDS011;2967;51.488;6.618;2024-02-26T04:43:43;2.50;;;2.13;;
5882;SDS011;2967;51.488;6.618;2024-02-26T04:48:46;3.93;;;2.20;;
5882;SDS011;2967;51.488;6.618;2024-02-26T04:53:51;18.10;;;11.57;;
5882;SDS011;2967;51.488;6.618;2024-02-26T04:58:54;4.00;;;2.70;;
5882;SDS011;2967;51.488;6.618;2024-02-26T05:03:57;2.43;;;2.23;;
5882;SDS011;2967;51.488;6.618;2024-02-26T05:09:01;2.67;;;2.03;;
5882;SDS011;2967;51.488;6.618;2024-02-26T05:14:05;2.20;;;1.77;;
5882;SDS011;2967;51.488;6.618;2024-02-26T05:19:08;3.03;;;1.90;;
5882;SDS011;2967;51.488;6.618;2024-02-26T05:24:12;2.23;;;2.00;;
5882;SDS011;2967;51.488;6.618;2024-02-26T05:29:17;6.07;;;2.07;;
5882;SDS011;2967;51.488;6.618;2024-02-26T05:34:20;2.70;;;2.10;;
5882;SDS011;2967;51.488;6.618;2024-02-26T05:39:25;3.07;;;2.40;;
5882;SDS011;2967;51.488;6.618;2024-02-26T05:44:28;2.27;;;2.07;;
5882;SDS011;2967;51.488;6.618;2024-02-26T05:49:31;2.43;;;2.00;;
5882;SDS011;2967;51.488;6.618;2024-02-26T05:54:36;2.73;;;2.40;;
5882;SDS011;2967;51.488;6.618;2024-02-26T05:59:39;2.90;;;2.70;;
5882;SDS011;2967;51.488;6.618;2024-02-26T06:04:41;2.87;;;2.03;;
5882;SDS011;2967;51.488;6.618;2024-02-26T06:09:49;2.83;;;2.20;;
5882;SDS011;2967;51.488;6.618;2024-02-26T06:14:57;17.30;;;9.37;;
5882;SDS011;2967;51.488;6.618;2024-02-26T06:20:02;4.97;;;3.27;;
5882;SDS011;2967;51.488;6.618;2024-02-26T06:25:09;3.40;;;2.70;;
5882;SDS011;2967;51.488;6.618;2024-02-26T06:30:12;16.83;;;10.70;;
5882;SDS011;2967;51.488;6.618;2024-02-26T06:35:15;4.43;;;2.40;;
5882;SDS011;2967;51.488;6.618;2024-02-26T06:40:19;2.70;;;2.37;;
5882;SDS011;2967;51.488;6.618;2024-02-26T06:45:22;5.07;;;3.30;;
5882;SDS011;2967;51.488;6.618;2024-02-26T06:50:25;4.27;;;2.40;;
5882;SDS011;2967;51.488;6.618;2024-02-26T06:55:30;3.77;;;2.63;;
5882;SDS011;2967;51.488;6.618;2024-02-26T07:00:37;16.40;;;10.03;;
5882;SDS011;2967;51.488;6.618;2024-02-26T07:05:40;3.50;;;3.20;;
5882;SDS011;2967;51.488;6.618;2024-02-26T07:10:44;17.03;;;9.43;;
5882;SDS011;2967;51.488;6.618;2024-02-26T07:21:15;4.43;;;2.30;;
5882;SDS011;2967;51.488;6.618;2024-02-26T07:26:19;3.10;;;2.47;;
5882;SDS011;2967;51.488;6.618;2024-02-26T07:31:22;12.90;;;8.70;;
5882;SDS011;2967;51.488;6.618;2024-02-26T07:36:27;3.13;;;2.83;;
5882;SDS011;2967;51.488;6.618;2024-02-26T07:41:32;2.80;;;2.43;;
5882;SDS011;2967;51.488;6.618;2024-02-26T07:46:35;2.40;;;2.20;;
5882;SDS011;2967;51.488;6.618;2024-02-26T07:51:37;3.20;;;2.53;;
5882;SDS011;2967;51.488;6.618;2024-02-26T07:56:41;4.70;;;2.80;;
5882;SDS011;2967;51.488;6.618;2024-02-26T08:01:48;3.80;;;2.70;;
5882;SDS011;2967;51.488;6.618;2024-02-26T08:06:57;2.80;;;2.50;;
5882;SDS011;2967;51.488;6.618;2024-02-26T08:12:02;2.53;;;2.30;;
5882;SDS011;2967;51.488;6.618;2024-02-26T08:17:05;4.23;;;2.20;;
5882;SDS011;2967;51.488;6.618;2024-02-26T08:22:08;2.80;;;1.70;;
5882;SDS011;2967;51.488;6.618;2024-02-26T08:27:18;2.67;;;1.83;;
5882;SDS011;2967;51.488;6.618;2024-02-26T08:32:25;2.97;;;2.47;;
5882;SDS011;2967;51.488;6.618;2024-02-26T08:37:28;4.67;;;2.43;;
5882;SDS011;2967;51.488;6.618;2024-02-26T08:42:32;3.30;;;2.50;;
5882;SDS011;2967;51.488;6.618;2024-02-26T08:47:35;2.60;;;2.23;;
5882;SDS011;2967;51.488;6.618;2024-02-26T08:52:38;5.00;;;2.80;;
5882;SDS011;2967;51.488;6.618;2024-02-26T08:57:42;3.50;;;2.90;;
5882;SDS011;2967;51.488;6.618;2024-02-26T09:02:45;4.30;;;2.20;;
5882;SDS011;2967;51.488;6.618;2024-02-26T09:07:48;2.90;;;2.20;;
5882;SDS011;2967;51.488;6.618;2024-02-26T09:12:54;2.63;;;2.00;;
5882;SDS011;2967;51.488;6.618;2024-02-26T09:17:58;2.70;;;2.30;;
5882;SDS011;2967;51.488;6.618;2024-02-26T09:23:01;3.57;;;2.50;;
5882;SDS011;2967;51.488;6.618;2024-02-26T09:28:05;5.73;;;2.80;;
5882;SDS011;2967;51.488;6.618;2024-02-26T09:33:08;2.30;;;2.10;;
5882;SDS011;2967;51.488;6.618;2024-02-26T09:38:11;5.13;;;2.50;;
5882;SDS011;2967;51.488;6.618;2024-02-26T09:43:15;5.43;;;2.43;;
5882;SDS011;2967;51.488;6.618;2024-02-26T09:48:23;3.63;;;2.00;;
5882;SDS011;2967;51.488;6.618;2024-02-26T09:53:26;4.77;;;2.90;;
5882;SDS011;2967;51.488;6.618;2024-02-26T09:58:34;3.33;;;2.50;;
5882;SDS011;2967;51.488;6.618;2024-02-26T10:03:41;3.20;;;2.30;;
5882;SDS011;2967;51.488;6.618;2024-02-26T10:08:46;3.67;;;2.40;;
5882;SDS011;2967;51.488;6.618;2024-02-26T10:13:51;2.70;;;2.47;;
5882;SDS011;2967;51.488;6.618;2024-02-26T10:18:54;3.83;;;2.90;;
5882;SDS011;2967;51.488;6.618;2024-02-26T10:24:00;4.60;;;3.10;;
5882;SDS011;2967;51.488;6.618;2024-02-26T10:29:04;4.10;;;2.90;;
5882;SDS011;2967;51.488;6.618;2024-02-26T10:34:07;7.50;;;2.37;;
5882;SDS011;2967;51.488;6.618;2024-02-26T10:39:11;4.40;;;3.20;;
5882;SDS011;2967;51.488;6.618;2024-02-26T10:44:16;6.37;;;2.70;;
5882;SDS011;2967;51.488;6.618;2024-02-26T10:49:20;3.23;;;2.93;;
5882;SDS011;2967;51.488;6.618;2024-02-26T10:54:26;4.50;;;2.57;;
5882;SDS011;2967;51.488;6.618;2024-02-26T10:59:32;3.47;;;2.80;;
5882;SDS011;2967;51.488;6.618;2024-02-26T11:04:37;3.10;;;2.57;;
5882;SDS011;2967;51.488;6.618;2024-02-26T11:09:40;4.53;;;2.93;;
5882;SDS011;2967;51.488;6.618;2024-02-26T11:14:48;5.30;;;3.10;;
5882;SDS011;2967;51.488;6.618;2024-02-26T11:19:57;5.93;;;4.40;;
5882;SDS011;2967;51.488;6.618;2024-02-26T11:25:00;4.00;;;3.60;;
5882;SDS011;2967;51.488;6.618;2024-02-26T11:30:05;3.40;;;3.10;;
5882;SDS011;2967;51.488;6.618;2024-02-26T11:35:12;4.20;;;3.53;;
5882;SDS011;2967;51.488;6.618;2024-02-26T11:40:16;4.10;;;3.40;;
5882;SDS011;2967;51.488;6.618;2024-02-26T11:50:58;5.37;;;4.50;;
5882;SDS011;2967;51.488;6.618;2024-02-26T11:56:16;8.10;;;5.50;;
5882;SDS011;2967;51.488;6.618;2024-02-26T12:01:43;5.07;;;4.50;;
5882;SDS011;2967;51.488;6.618;2024-02-26T12:06:51;10.03;;;5.40;;
5882;SDS011;2967;51.488;6.618;2024-02-26T12:11:55;7.30;;;5.63;;
5882;SDS011;2967;51.488;6.618;2024-02-26T12:17:00;11.30;;;7.43;;
5882;SDS011;2967;51.488;6.618;2024-02-26T12:22:04;7.87;;;6.63;;
5882;SDS011;2967;51.488;6.618;2024-02-26T12:27:10;8.90;;;6.17;;
5882;SDS011;2967;51.488;6.618;2024-02-26T12:32:16;5.60;;;5.00;;
5882;SDS011;2967;51.488;6.618;2024-02-26T12:37:18;30.30;;;17.13;;
5882;SDS011;2967;51.488;6.618;2024-02-26T12:42:24;6.10;;;5.20;;
5882;SDS011;2967;51.488;6.618;2024-02-26T12:47:29;6.43;;;5.27;;
5882;SDS011;2967;51.488;6.618;2024-02-26T12:52:31;7.70;;;5.23;;
5882;SDS011;2967;51.488;6.618;2024-02-26T12:57:35;6.13;;;5.17;;
5882;SDS011;2967;51.488;6.618;2024-02-26T13:02:41;7.37;;;5.40;;
5882;SDS011;2967;51.488;6.618;2024-02-26T13:07:46;7.73;;;4.83;;
5882;SDS011;2967;51.488;6.618;2024-02-26T13:12:49;10.07;;;7.50;;
5882;SDS011;2967;51.488;6.618;2024-02-26T13:17:54;5.37;;;4.47;;
5882;SDS011;2967;51.488;6.618;2024-02-26T13:23:01;7.03;;;4.10;;
5882;SDS011;2967;51.488;6.618;2024-02-26T13:28:06;7.27;;;4.53;;
5882;SDS011;2967;51.488;6.618;2024-02-26T13:33:18;6.93;;;4.87;;
5882;SDS011;2967;51.488;6.618;2024-02-26T13:38:23;4.63;;;3.73;;
5882;SDS011;2967;51.488;6.618;2024-02-26T13:43:28;4.60;;;3.80;;
5882;SDS011;2967;51.488;6.618;2024-02-26T13:48:33;3.90;;;3.53;;
5882;SDS011;2967;51.488;6.618;2024-02-26T13:53:36;5.03;;;4.30;;
5882;SDS011;2967;51.488;6.618;2024-02-26T13:58:39;7.60;;;3.60;;
5882;SDS011;2967;51.488;6.618;2024-02-26T14:03:43;4.63;;;3.90;;
5882;SDS011;2967;51.488;6.618;2024-02-26T14:08:46;6.50;;;3.23;;
5882;SDS011;2967;51.488;6.618;2024-02-26T14:13:49;4.53;;;3.80;;
5882;SDS011;2967;51.488;6.618;2024-02-26T14:18:53;4.20;;;3.70;;
5882;SDS011;2967;51.488;6.618;2024-02-26T14:23:56;3.90;;;3.50;;
5882;SDS011;2967;51.488;6.618;2024-02-26T14:29:00;4.40;;;3.50;;
5882;SDS011;2967;51.488;6.618;2024-02-26T14:34:05;4.33;;;3.80;;
5882;SDS011;2967;51.488;6.618;2024-02-26T14:39:08;4.47;;;3.70;;
5882;SDS011;2967;51.488;6.618;2024-02-26T14:44:14;5.10;;;3.87;;
5882;SDS011;2967;51.488;6.618;2024-02-26T14:49:19;4.50;;;3.87;;
5882;SDS011;2967;51.488;6.618;2024-02-26T14:54:27;6.73;;;5.27;;
5882;SDS011;2967;51.488;6.618;2024-02-26T14:59:37;5.33;;;4.00;;
5882;SDS011;2967;51.488;6.618;2024-02-26T15:04:43;5.70;;;4.80;;
5882;SDS011;2967;51.488;6.618;2024-02-26T15:09:47;5.20;;;4.57;;
5882;SDS011;2967;51.488;6.618;2024-02-26T15:14:51;6.40;;;5.40;;
5882;SDS011;2967;51.488;6.618;2024-02-26T15:19:59;7.90;;;5.73;;
5882;SDS011;2967;51.488;6.618;2024-02-26T15:25:03;8.20;;;6.00;;
5882;SDS011;2967;51.488;6.618;2024-02-26T15:30:07;6.90;;;5.73;;
5882;SDS011;2967;51.488;6.618;2024-02-26T15:35:12;7.77;;;6.30;;
5882;SDS011;2967;51.488;6.618;2024-02-26T15:40:15;11.07;;;7.07;;
5882;SDS011;2967;51.488;6.618;2024-02-26T15:45:20;7.47;;;6.23;;
5882;SDS011;2967;51.488;6.618;2024-02-26T15:50:24;7.83;;;6.73;;
5882;SDS011;2967;51.488;6.618;2024-02-26T15:55:27;7.73;;;6.90;;
5882;SDS011;2967;51.488;6.618;2024-02-26T16:00:31;9.17;;;7.60;;
5882;SDS011;2967;51.488;6.618;2024-02-26T16:05:36;10.93;;;8.07;;
5882;SDS011;2967;51.488;6.618;2024-02-26T16:10:40;9.73;;;7.47;;
5882;SDS011;2967;51.488;6.618;2024-02-26T16:15:44;9.90;;;8.10;;
5882;SDS011;2967;51.488;6.618;2024-02-26T16:20:57;11.37;;;9.10;;
5882;SDS011;2967;51.488;6.618;2024-02-26T16:26:05;9.47;;;7.90;;
5882;SDS011;2967;51.488;6.618;2024-02-26T16:31:07;10.87;;;7.73;;
5882;SDS011;2967;51.488;6.618;2024-02-26T16:36:12;11.50;;;8.40;;
5882;SDS011;2967;51.488;6.618;2024-02-26T16:41:15;11.90;;;8.37;;
5882;SDS011;2967;51.488;6.618;2024-02-26T16:46:18;12.80;;;8.40;;
5882;SDS011;2967;51.488;6.618;2024-02-26T16:51:22;9.77;;;7.80;;
5882;SDS011;2967;51.488;6.618;2024-02-26T16:56:26;10.97;;;8.50;;
5882;SDS011;2967;51.488;6.618;2024-02-26T17:01:28;9.83;;;7.30;;
5882;SDS011;2967;51.488;6.618;2024-02-26T17:06:34;9.27;;;7.27;;
5882;SDS011;2967;51.488;6.618;2024-02-26T17:11:37;11.80;;;7.80;;
5882;SDS011;2967;51.488;6.618;2024-02-26T17:16:41;10.10;;;7.00;;
5882;SDS011;2967;51.488;6.618;2024-02-26T17:21:45;13.07;;;8.10;;
5882;SDS011;2967;51.488;6.618;2024-02-26T17:26:50;8.63;;;7.47;;
5882;SDS011;2967;51.488;6.618;2024-02-26T17:31:53;11.30;;;7.60;;
5882;SDS011;2967;51.488;6.618;2024-02-26T17:37:01;9.77;;;7.60;;
5882;SDS011;2967;51.488;6.618;2024-02-26T17:42:05;9.20;;;7.27;;
5882;SDS011;2967;51.488;6.618;2024-02-26T17:47:10;9.63;;;7.93;;
5882;SDS011;2967;51.488;6.618;2024-02-26T17:52:15;12.17;;;8.30;;
5882;SDS011;2967;51.488;6.618;2024-02-26T17:57:18;10.53;;;8.97;;
5882;SDS011;2967;51.488;6.618;2024-02-26T18:02:22;11.03;;;8.40;;
5882;SDS011;2967;51.488;6.618;2024-02-26T18:07:26;13.30;;;10.07;;
5882;SDS011;2967;51.488;6.618;2024-02-26T18:12:29;17.63;;;10.13;;
5882;SDS011;2967;51.488;6.618;2024-02-26T18:17:32;13.33;;;10.47;;
5882;SDS011;2967;51.488;6.618;2024-02-26T18:22:39;12.87;;;8.50;;
5882;SDS011;2967;51.488;6.618;2024-02-26T18:27:42;11.73;;;9.23;;
5882;SDS011;2967;51.488;6.618;2024-02-26T18:32:46;11.60;;;9.10;;
5882;SDS011;2967;51.488;6.618;2024-02-26T18:37:54;11.67;;;9.60;;
5882;SDS011;2967;51.488;6.618;2024-02-26T18:49:51;13.03;;;10.80;;
5882;SDS011;2967;51.488;6.618;2024-02-26T18:54:56;12.30;;;10.70;;
5882;SDS011;2967;51.488;6.618;2024-02-26T18:59:58;13.53;;;10.50;;
5882;SDS011;2967;51.488;6.618;2024-02-26T19:05:01;14.33;;;11.00;;
5882;SDS011;2967;51.488;6.618;2024-02-26T19:10:06;13.73;;;10.13;;
5882;SDS011;2967;51.488;6.618;2024-02-26T19:15:09;11.13;;;9.23;;
5882;SDS011;2967;51.488;6.618;2024-02-26T19:20:13;12.80;;;9.70;;
5882;SDS011;2967;51.488;6.618;2024-02-26T19:25:19;16.00;;;12.60;;
5882;SDS011;2967;51.488;6.618;2024-02-26T19:30:22;12.83;;;10.83;;
5882;SDS011;2967;51.488;6.618;2024-02-26T19:35:25;17.60;;;13.50;;
5882;SDS011;2967;51.488;6.618;2024-02-26T19:40:29;18.93;;;11.27;;
5882;SDS011;2967;51.488;6.618;2024-02-26T19:45:32;13.40;;;11.17;;
5882;SDS011;2967;51.488;6.618;2024-02-26T19:50:37;14.20;;;11.67;;
5882;SDS011;2967;51.488;6.618;2024-02-26T19:55:41;15.40;;;12.60;;
5882;SDS011;2967;51.488;6.618;2024-02-26T20:00:45;14.33;;;11.17;;
5882;SDS011;2967;51.488;6.618;2024-02-26T20:05:48;15.00;;;12.20;;
5882;SDS011;2967;51.488;6.618;2024-02-26T20:10:52;17.60;;;13.00;;
5882;SDS011;2967;51.488;6.618;2024-02-26T20:15:56;16.33;;;13.00;;
5882;SDS011;2967;51.488;6.618;2024-02-26T20:20:59;16.50;;;13.27;;
5882;SDS011;2967;51.488;6.618;2024-02-26T20:26:04;15.20;;;13.00;;
5882;SDS011;2967;51.488;6.618;2024-02-26T20:31:07;16.40;;;13.10;;
5882;SDS011;2967;51.488;6.618;2024-02-26T20:36:10;18.47;;;14.00;;
5882;SDS011;2967;51.488;6.618;2024-02-26T20:41:16;16.23;;;13.47;;
5882;SDS011;2967;51.488;6.618;2024-02-26T20:46:19;16.07;;;13.30;;
5882;SDS011;2967;51.488;6.618;2024-02-26T20:51:24;19.67;;;14.73;;
5882;SDS011;2967;51.488;6.618;2024-02-26T20:56:28;22.87;;;16.03;;
5882;SDS011;2967;51.488;6.618;2024-02-26T21:01:32;20.33;;;16.90;;
5882;SDS011;2967;51.488;6.618;2024-02-26T21:06:35;20.37;;;15.00;;
5882;SDS011;2967;51.488;6.618;2024-02-26T21:11:40;18.33;;;14.90;;
5882;SDS011;2967;51.488;6.618;2024-02-26T21:16:43;25.93;;;20.20;;
5882;SDS011;2967;51.488;6.618;2024-02-26T21:21:46;20.03;;;15.00;;
5882;SDS011;2967;51.488;6.618;2024-02-26T21:26:51;21.77;;;16.93;;
5882;SDS011;2967;51.488;6.618;2024-02-26T21:31:54;19.37;;;15.43;;
5882;SDS011;2967;51.488;6.618;2024-02-26T21:36:57;22.40;;;16.63;;
5882;SDS011;2967;51.488;6.618;2024-02-26T21:42:02;19.73;;;16.80;;
5882;SDS011;2967;51.488;6.618;2024-02-26T21:47:05;24.30;;;19.87;;
5882;SDS011;2967;51.488;6.618;2024-02-26T21:52:08;22.97;;;18.40;;
5882;SDS011;2967;51.488;6.618;2024-02-26T21:57:13;20.50;;;17.00;;
5882;SDS011;2967;51.488;6.618;2024-02-26T22:02:16;24.93;;;19.53;;
5882;SDS011;2967;51.488;6.618;2024-02-26T22:07:19;32.73;;;22.87;;
5882;SDS011;2967;51.488;6.618;2024-02-26T22:12:25;26.47;;;19.67;;
5882;SDS011;2967;51.488;6.618;2024-02-26T22:17:29;22.80;;;18.00;;
5882;SDS011;2967;51.488;6.618;2024-02-26T22:22:32;24.97;;;19.33;;
5882;SDS011;2967;51.488;6.618;2024-02-26T22:27:36;22.50;;;16.60;;
5882;SDS011;2967;51.488;6.618;2024-02-26T22:32:39;24.00;;;18.70;;
5882;SDS011;2967;51.488;6.618;2024-02-26T22:37:42;22.60;;;18.13;;
5882;SDS011;2967;51.488;6.618;2024-02-26T22:42:46;23.27;;;18.50;;
5882;SDS011;2967;51.488;6.618;2024-02-26T22:47:49;24.33;;;18.67;;
5882;SDS011;2967;51.488;6.618;2024-02-26T22:52:52;24.40;;;18.50;;
5882;SDS011;2967;51.488;6.618;2024-02-26T22:57:56;24.73;;;18.90;;
5882;SDS011;2967;51.488;6.618;2024-02-26T23:02:59;24.83;;;19.70;;
5882;SDS011;2967;51.488;6.618;2024-02-26T23:08:04;25.30;;;19.10;;
5882;SDS011;2967;51.488;6.618;2024-02-26T23:13:10;24.20;;;18.67;;
5882;SDS011;2967;51.488;6.618;2024-02-26T23:18:13;24.10;;;18.60;;
5882;SDS011;2967;51.488;6.618;2024-02-26T23:23:16;28.27;;;19.77;;
5882;SDS011;2967;51.488;6.618;2024-02-26T23:28:21;23.50;;;18.63;;
5882;SDS011;2967;51.488;6.618;2024-02-26T23:33:32;22.93;;;18.10;;
5882;SDS011;2967;51.488;6.618;2024-02-26T23:38:35;26.77;;;19.97;;
5882;SDS011;2967;51.488;6.618;2024-02-26T23:43:39;23.77;;;17.87;;
5882;SDS011;2967;51.488;6.618;2024-02-26T23:48:42;23.60;;;18.17;;
5882;SDS011;2967;51.488;6.618;2024-02-26T23:53:45;25.50;;;17.93;;
5882;SDS011;2967;51.488;6.618;2024-02-26T23:58:50;25.13;;;18.50;;
